< VanCam Weather - WU Station History
^^
Station Historical Data
Daily Summary for April 17, 2018 Units:  English    Metric   Both
« Previous Day
Next Day »
Daily Weekly Monthly Yearly Custom
  High: Low: Average:
Temperature: 53.2 °F 41.5 °F 45.4 °F
Dew Point: 42.7 °F 37.9 °F 40.3 °F
Humidity: 94% 58% 83%
Wind Speed: 11.5mph 0.0mph 3.1mph
Wind Gust: 11.5mph - -
Wind- - SSW
Pressure: 30.29 in 30.05 in -
Precipitation: 0.02 in    
Historical Graphs
 
 
Tabular Data for April 17, 2018
Time Temperature Dew Point Pressure Wind Wind Speed Wind Gust Humidity Rainfall Rate (Hourly) solar Conditions
00:00 43.5 °F 40.2 °F 30.05 in SSW 3.5 mph 3.5 mph 88% 0.00 in WeatherDisplay:10.37 W/m2 RA
00:05 43.5 °F 40.2 °F 30.05 in SW 3.5 mph 3.5 mph 88% 0.00 in WeatherDisplay:10.37 W/m2 RA
00:10 43.5 °F 40.2 °F 30.05 in SSW 5.8 mph 5.8 mph 88% 0.00 in WeatherDisplay:10.37 W/m2 CLR
00:15 43.5 °F 40.2 °F 30.05 in SSW 5.8 mph 5.8 mph 88% 0.00 in WeatherDisplay:10.37 W/m2 CLR
00:20 43.5 °F 40.2 °F 30.05 in SSW 6.9 mph 6.9 mph 88% 0.00 in WeatherDisplay:10.37 W/m2 CLR
00:25 43.5 °F 40.2 °F 30.06 in SSW 3.5 mph 3.5 mph 88% 0.00 in WeatherDisplay:10.37 W/m2 CLR
00:30 43.5 °F 40.2 °F 30.06 in South 3.5 mph 3.5 mph 88% 0.00 in WeatherDisplay:10.37 W/m2 CLR
00:35 43.4 °F 40.1 °F 30.06 in South 2.3 mph 2.3 mph 88% 0.00 in WeatherDisplay:10.37 W/m2 CLR
00:40 43.4 °F 40.1 °F 30.07 in South 3.5 mph 3.5 mph 88% 0.00 in WeatherDisplay:10.37 W/m2 CLR
00:45 43.3 °F 40.3 °F 30.07 in South 3.5 mph 3.5 mph 89% 0.00 in WeatherDisplay:10.37 W/m2 CLR
00:50 43.3 °F 40.0 °F 30.07 in SSW 3.5 mph 3.5 mph 88% 0.00 in WeatherDisplay:10.37 W/m2 CLR
00:55 43.3 °F 40.3 °F 30.08 in SSW 1.0 mph   89% 0.00 in WeatherDisplay:10.37 W/m2 CLR
01:00 43.3 °F 40.3 °F 30.08 in SSW 1.2 mph 1.2 mph 89% 0.00 in WeatherDisplay:10.37 W/m2 CLR
01:05 43.2 °F 40.2 °F 30.08 in SSW 2.3 mph 2.3 mph 89% 0.00 in WeatherDisplay:10.37 W/m2 CLR
01:10 43.2 °F 40.2 °F 30.08 in South 11.5 mph 11.5 mph 89% 0.00 in WeatherDisplay:10.37 W/m2 CLR
01:15 43.2 °F 40.2 °F 30.08 in SSW 4.6 mph 4.6 mph 89% 0.00 in WeatherDisplay:10.37 W/m2 CLR
01:20 43.2 °F 40.2 °F 30.08 in SSW 2.3 mph 2.3 mph 89% 0.00 in WeatherDisplay:10.37 W/m2 CLR
01:25 43.2 °F 40.2 °F 30.08 in South 6.9 mph 6.9 mph 89% 0.00 in WeatherDisplay:10.37 W/m2 CLR
01:30 43.3 °F 40.3 °F 30.09 in SSW 3.5 mph 3.5 mph 89% 0.00 in WeatherDisplay:10.37 W/m2 CLR
01:35 43.2 °F 40.2 °F 30.09 in SSE 5.8 mph 5.8 mph 89% 0.00 in WeatherDisplay:10.37 W/m2 CLR
01:40 43.2 °F 40.2 °F 30.09 in SSW 3.5 mph 3.5 mph 89% 0.00 in WeatherDisplay:10.37 W/m2 CLR
01:45 43.2 °F 40.2 °F 30.09 in South 5.0 mph 5.0 mph 89% 0.00 in WeatherDisplay:10.37 W/m2 CLR
01:50 43.2 °F 40.2 °F 30.09 in South 2.3 mph 2.3 mph 89% 0.00 in WeatherDisplay:10.37 W/m2 CLR
01:55 43.2 °F 40.2 °F 30.09 in South 3.5 mph 3.5 mph 89% 0.00 in WeatherDisplay:10.37 W/m2 CLR
02:00 43.2 °F 40.2 °F 30.09 in South 3.5 mph 3.5 mph 89% 0.00 in WeatherDisplay:10.37 W/m2 CLR
02:05 43.1 °F 40.4 °F 30.10 in South 1.2 mph   90% 0.00 in WeatherDisplay:10.37 W/m2 CLR
02:10 43.1 °F 40.4 °F 30.10 in South 1.2 mph 1.2 mph 90% 0.00 in WeatherDisplay:10.37 W/m2 CLR
02:15 43.1 °F 40.4 °F 30.10 in South 1.2 mph 1.2 mph 90% 0.00 in WeatherDisplay:10.37 W/m2 CLR
02:20 43.1 °F 40.4 °F 30.10 in South 1.2 mph 1.2 mph 90% 0.00 in WeatherDisplay:10.37 W/m2 CLR
02:25 43.1 °F 40.4 °F 30.10 in SSW 2.3 mph 2.3 mph 90% 0.00 in WeatherDisplay:10.37 W/m2 CLR
02:30 43.1 °F 40.4 °F 30.11 in SW 3.5 mph 3.5 mph 90% 0.00 in WeatherDisplay:10.37 W/m2 CLR
02:35 43.1 °F 40.4 °F 30.11 in WNW 2.3 mph 2.3 mph 90% 0.00 in WeatherDisplay:10.37 W/m2 CLR
02:40 43.1 °F 40.4 °F 30.11 in South 2.3 mph 2.3 mph 90% 0.00 in WeatherDisplay:10.37 W/m2 CLR
02:45 43.0 °F 40.6 °F 30.11 in South 2.3 mph 2.3 mph 91% 0.00 in WeatherDisplay:10.37 W/m2 CLR
02:50 42.9 °F 40.5 °F 30.11 in SW 2.3 mph 2.3 mph 91% 0.00 in WeatherDisplay:10.37 W/m2 CLR
02:55 42.8 °F 40.4 °F 30.11 in SSW 3.5 mph 3.5 mph 91% 0.00 in WeatherDisplay:10.37 W/m2 CLR
03:00 42.8 °F 40.4 °F 30.11 in SSW 2.3 mph 2.3 mph 91% 0.00 in WeatherDisplay:10.37 W/m2 CLR
03:05 42.7 °F 40.3 °F 30.11 in SSW 2.3 mph 2.3 mph 91% 0.00 in WeatherDisplay:10.37 W/m2 CLR
03:10 42.6 °F 40.2 °F 30.12 in SSW 3.5 mph 3.5 mph 91% 0.00 in WeatherDisplay:10.37 W/m2 CLR
03:15 42.6 °F 40.4 °F 30.12 in Calm     92% 0.00 in WeatherDisplay:10.37 W/m2 CLR
03:20 42.5 °F 40.3 °F 30.12 in South 2.0 mph 2.0 mph 92% 0.00 in WeatherDisplay:10.37 W/m2 CLR
03:25 42.5 °F 40.3 °F 30.12 in South 2.3 mph 2.3 mph 92% 0.00 in WeatherDisplay:10.37 W/m2 CLR
03:30 42.5 °F 40.3 °F 30.12 in SSE 2.3 mph 2.3 mph 92% 0.00 in WeatherDisplay:10.37 W/m2 CLR
03:35 42.5 °F 40.3 °F 30.12 in SSE 2.3 mph 2.3 mph 92% 0.00 in WeatherDisplay:10.37 W/m2 CLR
03:40 42.5 °F 40.3 °F 30.12 in South 3.5 mph 3.5 mph 92% 0.00 in WeatherDisplay:10.37 W/m2 CLR
03:45 42.5 °F 40.3 °F 30.12 in SSE 6.9 mph 6.9 mph 92% 0.00 in WeatherDisplay:10.37 W/m2 CLR
03:50 42.5 °F 40.3 °F 30.12 in SSE 6.0 mph 6.0 mph 92% 0.00 in WeatherDisplay:10.37 W/m2 CLR
03:55 42.5 °F 40.3 °F 30.12 in SSE 5.8 mph 5.8 mph 92% 0.00 in WeatherDisplay:10.37 W/m2 CLR
04:00 42.5 °F 40.6 °F 30.13 in SSW 3.0 mph 3.0 mph 93% 0.00 in WeatherDisplay:10.37 W/m2 CLR
04:05 42.4 °F 40.5 °F 30.13 in WSW 3.5 mph 3.5 mph 93% 0.00 in WeatherDisplay:10.37 W/m2 CLR
04:10 42.4 °F 40.5 °F 30.13 in SSW 2.3 mph 2.3 mph 93% 0.00 in WeatherDisplay:10.37 W/m2 CLR
04:15 42.3 °F 40.4 °F 30.13 in WSW 2.3 mph 2.3 mph 93% 0.00 in WeatherDisplay:10.37 W/m2 CLR
04:20 42.2 °F 40.3 °F 30.13 in WSW 3.5 mph 3.5 mph 93% 0.00 in WeatherDisplay:10.37 W/m2 CLR
04:25 42.1 °F 40.2 °F 30.13 in SW 3.5 mph 3.5 mph 93% 0.00 in WeatherDisplay:10.37 W/m2 CLR
04:30 42.0 °F 40.1 °F 30.14 in WSW 3.0 mph 3.0 mph 93% 0.00 in WeatherDisplay:10.37 W/m2 CLR
04:35 41.9 °F 40.3 °F 30.14 in SE 3.5 mph 3.5 mph 94% 0.00 in WeatherDisplay:10.37 W/m2 CLR
04:40 41.9 °F 40.3 °F 30.14 in South 3.5 mph 3.5 mph 94% 0.00 in WeatherDisplay:10.37 W/m2 CLR
04:45 42.0 °F 40.1 °F 30.14 in South 3.5 mph 3.5 mph 93% 0.00 in WeatherDisplay:10.37 W/m2 CLR
04:50 42.0 °F 40.1 °F 30.14 in WSW 3.5 mph 3.5 mph 93% 0.00 in WeatherDisplay:10.37 W/m2 CLR
04:55 42.1 °F 39.9 °F 30.14 in WSW 4.6 mph 4.6 mph 92% 0.00 in WeatherDisplay:10.37 W/m2 CLR
05:00 42.1 °F 39.9 °F 30.15 in SW 4.6 mph 4.6 mph 92% 0.00 in WeatherDisplay:10.37 W/m2 CLR
05:05 42.1 °F 39.9 °F 30.15 in SSW 4.6 mph 4.6 mph 92% 0.00 in WeatherDisplay:10.37 W/m2 CLR
05:10 42.1 °F 39.9 °F 30.15 in South 5.8 mph 5.8 mph 92% 0.00 in WeatherDisplay:10.37 W/m2 CLR
05:15 42.1 °F 39.9 °F 30.15 in SSW 3.5 mph 3.5 mph 92% 0.00 in WeatherDisplay:10.37 W/m2 CLR
05:20 42.1 °F 39.9 °F 30.15 in South 3.5 mph 3.5 mph 92% 0.00 in WeatherDisplay:10.37 W/m2 CLR
05:25 42.1 °F 40.2 °F 30.16 in South 2.3 mph 2.3 mph 93% 0.00 in WeatherDisplay:10.37 W/m2 CLR
05:30 42.1 °F 39.9 °F 30.16 in South 3.5 mph 3.5 mph 92% 0.00 in WeatherDisplay:10.37 W/m2 CLR
05:35 42.1 °F 39.9 °F 30.16 in SSW 3.5 mph 3.5 mph 92% 0.00 in WeatherDisplay:10.37 W/m2 CLR
05:40 42.1 °F 39.9 °F 30.16 in South 1.2 mph 1.2 mph 92% 0.00 in WeatherDisplay:10.37 W/m2 CLR
05:45 42.1 °F 39.9 °F 30.16 in South 3.5 mph 3.5 mph 92% 0.00 in WeatherDisplay:10.37 W/m2 CLR
05:50 42.1 °F 39.9 °F 30.17 in SSE 2.3 mph 2.3 mph 92% 0.00 in WeatherDisplay:10.37 W/m2 CLR
05:55 42.1 °F 39.9 °F 30.17 in SSW 2.3 mph 2.3 mph 92% 0.00 in WeatherDisplay:10.37 W/m2 CLR
06:00 42.1 °F 39.9 °F 30.17 in SSW 1.2 mph 1.2 mph 92% 0.00 in WeatherDisplay:10.37 W/m2 CLR
06:05 42.1 °F 39.7 °F 30.17 in WSW 2.3 mph 2.3 mph 91% 0.00 in WeatherDisplay:10.37 W/m2 CLR
06:10 42.2 °F 39.8 °F 30.18 in South 3.5 mph 3.5 mph 91% 0.00 in WeatherDisplay:10.37 W/m2 CLR
06:15 42.2 °F 39.8 °F 30.18 in South 3.5 mph 3.5 mph 91% 0.00 in WeatherDisplay:10.37 W/m2 CLR
06:20 42.3 °F 39.9 °F 30.18 in WSW 2.3 mph 2.3 mph 91% 0.00 in WeatherDisplay:10.37 W/m2 CLR
06:25 42.4 °F 39.7 °F 30.18 in SW 4.6 mph 4.6 mph 90% 0.00 in WeatherDisplay:10.37 W/m2 CLR
06:30 42.4 °F 40.0 °F 30.18 in SW 4.0 mph 4.0 mph 91% 0.00 in WeatherDisplay:10.37 W/m2 CLR
06:35 42.4 °F 40.0 °F 30.19 in WSW 3.5 mph 3.5 mph 91% 0.00 in WeatherDisplay:10.37 W/m2 CLR
06:40 42.4 °F 40.0 °F 30.19 in South 5.0 mph 5.0 mph 91% 0.00 in WeatherDisplay:10.37 W/m2 CLR
06:45 42.4 °F 39.7 °F 30.19 in South 5.8 mph 5.8 mph 90% 0.01 in WeatherDisplay:10.37 W/m2 RA
06:50 42.4 °F 39.7 °F 30.19 in West 3.5 mph 3.5 mph 90% 0.01 in WeatherDisplay:10.37 W/m2 RA
06:55 42.4 °F 39.7 °F 30.19 in South 3.5 mph 3.5 mph 90% 0.01 in WeatherDisplay:10.37 W/m2
07:00 42.4 °F 40.0 °F 30.19 in SSW 2.3 mph 2.3 mph 91% 0.01 in WeatherDisplay:10.37 W/m2 CLR
07:05 42.4 °F 40.0 °F 30.20 in South 1.2 mph 1.2 mph 91% 0.01 in WeatherDisplay:10.37 W/m2 CLR
07:10 42.4 °F 40.0 °F 30.20 in SSW 3.0 mph 3.0 mph 91% 0.01 in WeatherDisplay:10.37 W/m2 CLR
07:15 42.3 °F 39.9 °F 30.20 in WSW 2.3 mph 2.3 mph 91% 0.01 in WeatherDisplay:10.37 W/m2 CLR
07:20 42.4 °F 39.7 °F 30.21 in SW 4.6 mph 4.6 mph 90% 0.01 in WeatherDisplay:10.37 W/m2 CLR
07:25 42.5 °F 39.8 °F 30.21 in South 5.0 mph 5.0 mph 90% 0.01 in WeatherDisplay:10.37 W/m2 CLR
07:30 42.5 °F 39.8 °F 30.21 in SSW 3.5 mph 3.5 mph 90% 0.01 in WeatherDisplay:10.37 W/m2 CLR
07:35 42.6 °F 39.6 °F 30.21 in South 5.8 mph 5.8 mph 89% 0.01 in WeatherDisplay:10.37 W/m2 CLR
07:40 42.7 °F 39.7 °F 30.22 in South 4.6 mph 4.6 mph 89% 0.01 in WeatherDisplay:10.37 W/m2 CLR
07:45 42.8 °F 39.8 °F 30.22 in SSW 3.5 mph 3.5 mph 89% 0.00 in WeatherDisplay:10.37 W/m2 CLR
07:50 43.0 °F 39.7 °F 30.22 in WSW 3.5 mph 3.5 mph 88% 0.00 in WeatherDisplay:10.37 W/m2 CLR
07:55 43.1 °F 40.1 °F 30.22 in South 3.5 mph 3.5 mph 89% 0.00 in WeatherDisplay:10.37 W/m2 CLR
08:00 43.3 °F 40.0 °F 30.22 in SSW 3.5 mph 3.5 mph 88% 0.00 in WeatherDisplay:10.37 W/m2 CLR
08:05 43.4 °F 40.4 °F 30.22 in South 1.2 mph 1.2 mph 89% 0.00 in WeatherDisplay:10.37 W/m2 CLR
08:10 43.6 °F 40.3 °F 30.22 in SSW 3.5 mph 3.5 mph 88% 0.00 in WeatherDisplay:10.37 W/m2 CLR
08:15 43.6 °F 40.3 °F 30.23 in SSW 2.3 mph 2.3 mph 88% 0.00 in WeatherDisplay:10.37 W/m2 CLR
08:20 43.7 °F 40.1 °F 30.23 in SSE 3.5 mph 3.5 mph 87% 0.00 in WeatherDisplay:10.37 W/m2 CLR
08:25 43.9 °F 40.3 °F 30.23 in WSW 4.6 mph 4.6 mph 87% 0.00 in WeatherDisplay:10.37 W/m2 CLR
08:30 44.1 °F 40.8 °F 30.23 in SSW 2.3 mph 2.3 mph 88% 0.00 in WeatherDisplay:10.37 W/m2 CLR
08:35 44.3 °F 40.7 °F 30.24 in South 5.0 mph 5.0 mph 87% 0.00 in WeatherDisplay:10.37 W/m2 CLR
08:40 44.4 °F 40.5 °F 30.24 in South 4.6 mph 4.6 mph 86% 0.00 in WeatherDisplay:10.37 W/m2 CLR
08:45 44.5 °F 40.6 °F 30.24 in SSW 1.2 mph 1.2 mph 86% 0.00 in WeatherDisplay:10.37 W/m2 CLR
08:50 44.6 °F 40.4 °F 30.24 in SSW 9.2 mph 9.2 mph 85% 0.00 in WeatherDisplay:10.37 W/m2 CLR
08:55 44.7 °F 40.8 °F 30.24 in WSW 2.3 mph 2.3 mph 86% 0.00 in WeatherDisplay:10.37 W/m2 CLR
09:00 45.0 °F 41.1 °F 30.24 in SSW 6.0 mph 6.0 mph 86% 0.00 in WeatherDisplay:10.37 W/m2 CLR
09:05 45.0 °F 40.8 °F 30.24 in SW 2.3 mph 2.3 mph 85% 0.00 in WeatherDisplay:10.37 W/m2 CLR
09:10 45.1 °F 40.9 °F 30.24 in West 2.3 mph 2.3 mph 85% 0.00 in WeatherDisplay:10.37 W/m2 CLR
09:15 45.4 °F 41.2 °F 30.24 in West 2.3 mph 2.3 mph 85% 0.00 in WeatherDisplay:10.37 W/m2 CLR
09:20 45.4 °F 40.5 °F 30.25 in South 2.3 mph 2.3 mph 83% 0.00 in WeatherDisplay:10.37 W/m2 CLR
09:25 45.4 °F 40.5 °F 30.25 in SSW 2.3 mph 2.3 mph 83% 0.00 in WeatherDisplay:10.37 W/m2 CLR
09:30 45.6 °F 41.4 °F 30.25 in South 1.2 mph 1.2 mph 85% 0.00 in WeatherDisplay:10.37 W/m2 CLR
09:35 45.6 °F 40.7 °F 30.25 in South 4.0 mph 4.0 mph 83% 0.00 in WeatherDisplay:10.37 W/m2 CLR
09:40 45.5 °F 40.9 °F 30.26 in SW 2.3 mph 2.3 mph 84% 0.00 in WeatherDisplay:10.37 W/m2 CLR
09:45 45.5 °F 41.3 °F 30.26 in SSW 3.5 mph 3.5 mph 85% 0.00 in WeatherDisplay:10.37 W/m2 CLR
09:50 45.7 °F 40.5 °F 30.26 in South 3.5 mph 3.5 mph 82% 0.00 in WeatherDisplay:10.37 W/m2 CLR
09:55 45.8 °F 40.3 °F 30.26 in WSW 4.6 mph 4.6 mph 81% 0.00 in WeatherDisplay:10.37 W/m2 CLR
10:00 45.9 °F 40.4 °F 30.26 in South 5.8 mph 5.8 mph 81% 0.00 in WeatherDisplay:10.37 W/m2 CLR
10:05 46.0 °F 40.2 °F 30.26 in SW 2.3 mph 2.3 mph 80% 0.00 in WeatherDisplay:10.37 W/m2 CLR
10:10 46.1 °F 40.3 °F 30.26 in SW 3.5 mph 3.5 mph 80% 0.00 in WeatherDisplay:10.37 W/m2 CLR
10:15 46.1 °F 39.6 °F 30.26 in WSW 5.8 mph 5.8 mph 78% 0.00 in WeatherDisplay:10.37 W/m2 CLR
10:20 46.0 °F 40.8 °F 30.27 in South 8.0 mph 8.0 mph 82% 0.00 in WeatherDisplay:10.37 W/m2 CLR
10:25 45.9 °F 40.7 °F 30.27 in South 3.5 mph 3.5 mph 82% 0.00 in WeatherDisplay:10.37 W/m2 CLR
10:30 46.0 °F 40.8 °F 30.27 in SW 3.5 mph 3.5 mph 82% 0.00 in WeatherDisplay:10.37 W/m2 CLR
10:35 46.1 °F 40.9 °F 30.27 in South 3.5 mph 3.8 mph 82% 0.00 in WeatherDisplay:10.37 W/m2 CLR
10:40 46.2 °F 40.7 °F 30.27 in SW 8.0 mph 8.0 mph 81% 0.00 in WeatherDisplay:10.37 W/m2 CLR
10:45 45.8 °F 41.2 °F 30.27 in SW 8.0 mph 8.0 mph 84% 0.00 in WeatherDisplay:10.37 W/m2 CLR
10:50 45.7 °F 41.1 °F 30.27 in SSW 5.8 mph 5.8 mph 84% 0.00 in WeatherDisplay:10.37 W/m2 CLR
10:55 46.2 °F 41.9 °F 30.27 in SE 4.6 mph 4.6 mph 85% 0.00 in WeatherDisplay:10.37 W/m2 CLR
11:00 46.7 °F 42.4 °F 30.27 in SSW 3.0 mph 3.0 mph 85% 0.00 in WeatherDisplay:10.37 W/m2 CLR
11:05 47.3 °F 41.8 °F 30.27 in SE 6.9 mph 6.9 mph 81% 0.00 in WeatherDisplay:10.37 W/m2 CLR
11:10 48.0 °F 42.4 °F 30.27 in East 3.5 mph 3.5 mph 81% 0.00 in WeatherDisplay:10.37 W/m2 CLR
11:15 48.6 °F 42.7 °F 30.27 in South 3.0 mph 3.0 mph 80% 0.00 in WeatherDisplay:10.37 W/m2 CLR
11:20 48.8 °F 41.2 °F 30.27 in SSW 4.6 mph 4.6 mph 75% 0.00 in WeatherDisplay:10.37 W/m2 CLR
11:25 48.8 °F 41.6 °F 30.27 in SSE 3.5 mph 3.5 mph 76% 0.00 in WeatherDisplay:10.37 W/m2 CLR
11:30 48.7 °F 40.8 °F 30.27 in SSW 11.5 mph 11.5 mph 74% 0.00 in WeatherDisplay:10.37 W/m2 CLR
11:35 49.0 °F 41.1 °F 30.27 in WSW 5.8 mph 5.8 mph 74% 0.00 in WeatherDisplay:10.37 W/m2 CLR
11:40 49.5 °F 41.6 °F 30.28 in WSW 2.3 mph 2.3 mph 74% 0.00 in WeatherDisplay:10.37 W/m2 CLR
11:45 49.8 °F 40.8 °F 30.27 in SSW 5.8 mph 5.8 mph 71% 0.00 in WeatherDisplay:10.37 W/m2 CLR
11:50 49.8 °F 40.4 °F 30.28 in SW 9.2 mph 9.2 mph 70% 0.00 in WeatherDisplay:10.37 W/m2 CLR
11:55 50.0 °F 40.2 °F 30.28 in South 5.8 mph 5.8 mph 69% 0.00 in WeatherDisplay:10.37 W/m2 CLR
12:00 50.0 °F 40.2 °F 30.28 in NW 3.5 mph 3.5 mph 69% 0.00 in WeatherDisplay:10.37 W/m2 CLR
12:05 49.8 °F 40.4 °F 30.28 in WSW 5.8 mph 5.8 mph 70% 0.00 in WeatherDisplay:10.37 W/m2 CLR
12:10 49.7 °F 41.4 °F 30.28 in WNW 3.5 mph 3.5 mph 73% 0.00 in WeatherDisplay:10.37 W/m2 CLR
12:15 49.9 °F 40.5 °F 30.28 in WNW 9.2 mph 9.2 mph 70% 0.00 in WeatherDisplay:10.37 W/m2 CLR
12:20 50.0 °F 40.2 °F 30.28 in SW 4.0 mph 4.0 mph 69% 0.00 in WeatherDisplay:10.37 W/m2 CLR
12:25 50.1 °F 40.3 °F 30.28 in SSW 3.5 mph 3.5 mph 69% 0.00 in WeatherDisplay:10.37 W/m2 CLR
12:30 50.7 °F 41.3 °F 30.28 in West 3.5 mph 3.5 mph 70% 0.00 in WeatherDisplay:10.37 W/m2 CLR
12:35 50.9 °F 40.3 °F 30.28 in SSE 4.6 mph 4.6 mph 67% 0.00 in WeatherDisplay:10.37 W/m2 CLR
12:40 50.7 °F 40.5 °F 30.28 in South 4.6 mph 4.6 mph 68% 0.00 in WeatherDisplay:10.37 W/m2 CLR
12:45 49.9 °F 40.1 °F 30.29 in SW 10.4 mph 10.4 mph 69% 0.00 in WeatherDisplay:10.37 W/m2 CLR
12:50 48.3 °F 40.4 °F 30.29 in West 6.9 mph 6.9 mph 74% 0.00 in WeatherDisplay:10.37 W/m2 CLR
12:55 47.4 °F 40.2 °F 30.29 in SW 10.4 mph 10.4 mph 76% 0.00 in WeatherDisplay:10.37 W/m2 CLR
13:00 47.3 °F 41.1 °F 30.29 in SW 4.6 mph 4.6 mph 79% 0.00 in WeatherDisplay:10.37 W/m2 CLR
13:05 47.5 °F 41.3 °F 30.29 in West 4.6 mph 4.6 mph 79% 0.00 in WeatherDisplay:10.37 W/m2 CLR
13:10 47.9 °F 41.7 °F 30.29 in NW 3.0 mph 3.0 mph 79% 0.00 in WeatherDisplay:10.37 W/m2 CLR
13:15 48.2 °F 40.3 °F 30.29 in SSE 5.8 mph 5.8 mph 74% 0.00 in WeatherDisplay:10.37 W/m2 CLR
13:20 48.6 °F 40.7 °F 30.29 in WSW 4.6 mph 4.6 mph 74% 0.00 in WeatherDisplay:10.37 W/m2 CLR
13:25 49.5 °F 40.8 °F 30.29 in South 4.6 mph 4.6 mph 72% 0.00 in WeatherDisplay:10.37 W/m2 CLR
13:30 50.4 °F 40.2 °F 30.29 in SSE 11.5 mph 11.5 mph 68% 0.00 in WeatherDisplay:10.37 W/m2 CLR
13:35 50.7 °F 41.6 °F 30.29 in WNW 3.5 mph 3.5 mph 71% 0.00 in WeatherDisplay:10.37 W/m2 CLR
13:40 51.6 °F 41.4 °F 30.28 in South 5.8 mph 5.8 mph 68% 0.00 in WeatherDisplay:10.37 W/m2 CLR
13:45 52.0 °F 42.5 °F 30.29 in West 6.0 mph 6.0 mph 70% 0.00 in WeatherDisplay:10.37 W/m2 CLR
13:50 51.5 °F 41.3 °F 30.28 in WNW 3.5 mph 3.5 mph 68% 0.00 in WeatherDisplay:10.37 W/m2 CLR
13:55 51.8 °F 41.6 °F 30.28 in SSW 3.5 mph 3.5 mph 68% 0.00 in WeatherDisplay:10.37 W/m2 CLR
14:00 51.8 °F 40.4 °F 30.28 in South 3.5 mph 3.8 mph 65% 0.00 in WeatherDisplay:10.37 W/m2 CLR
14:05 51.5 °F 40.1 °F 30.28 in SSW 3.5 mph 3.5 mph 65% 0.00 in WeatherDisplay:10.37 W/m2 CLR
14:10 51.3 °F 41.1 °F 30.28 in South 1.2 mph 1.2 mph 68% 0.00 in WeatherDisplay:10.37 W/m2 CLR
14:15 51.2 °F 40.6 °F 30.28 in South 1.2 mph 1.2 mph 67% 0.01 in WeatherDisplay:10.37 W/m2 RA
14:20 51.2 °F 41.0 °F 30.28 in West 3.5 mph 3.5 mph 68% 0.01 in WeatherDisplay:10.37 W/m2 RA
14:25 51.0 °F 40.4 °F 30.29 in South 3.5 mph 3.5 mph 67% 0.01 in WeatherDisplay:10.37 W/m2
14:30 50.6 °F 39.7 °F 30.28 in WSW 3.5 mph 3.5 mph 66% 0.01 in WeatherDisplay:10.37 W/m2
17:45 53.2 °F 39.7 °F 30.26 in WNW 2.0 mph 7.0 mph 60% 0.00 in WeatherDisplay:10.37 W/m2
17:50 52.3 °F 39.7 °F 30.26 in WNW 3.5 mph 3.5 mph 62% 0.00 in WeatherDisplay:10.37 W/m2
17:55 52.2 °F 37.9 °F 30.26 in South 4.0 mph 4.0 mph 58% 0.00 in WeatherDisplay:10.37 W/m2
18:00 52.2 °F 37.9 °F 30.26 in West 3.5 mph 3.5 mph 58% 0.00 in WeatherDisplay:10.37 W/m2
18:05 52.3 °F 38.4 °F 30.26 in West 2.3 mph 2.3 mph 59% 0.00 in WeatherDisplay:10.37 W/m2
18:10 52.3 °F 39.7 °F 30.26 in West 3.5 mph 3.5 mph 62% 0.00 in WeatherDisplay:10.37 W/m2
18:15 52.3 °F 38.8 °F 30.26 in SSW 1.2 mph 1.2 mph 60% 0.00 in WeatherDisplay:10.37 W/m2
18:20 52.3 °F 38.8 °F 30.26 in SSW 1.2 mph 1.2 mph 60% 0.00 in WeatherDisplay:10.37 W/m2
18:25 52.3 °F 39.2 °F 30.26 in Calm     61% 0.00 in WeatherDisplay:10.37 W/m2
18:30 52.2 °F 39.1 °F 30.26 in NW 2.3 mph 2.3 mph 61% 0.00 in WeatherDisplay:10.37 W/m2 CLR
18:35 52.1 °F 38.6 °F 30.26 in SSW 2.3 mph 2.3 mph 60% 0.00 in WeatherDisplay:10.37 W/m2 CLR
18:40 52.0 °F 38.1 °F 30.26 in South 3.5 mph 3.5 mph 59% 0.00 in WeatherDisplay:10.37 W/m2 CLR
18:45 51.9 °F 38.4 °F 30.26 in South 3.5 mph 3.5 mph 60% 0.00 in WeatherDisplay:10.37 W/m2 CLR
18:50 51.8 °F 38.3 °F 30.26 in WNW 1.2 mph 1.2 mph 60% 0.00 in WeatherDisplay:10.37 W/m2 CLR
18:55 51.7 °F 39.5 °F 30.26 in WNW 1.2 mph 1.2 mph 63% 0.00 in WeatherDisplay:10.37 W/m2 CLR
19:00 51.6 °F 38.6 °F 30.26 in SSW 2.3 mph 2.3 mph 61% 0.00 in WeatherDisplay:10.37 W/m2 CLR
19:05 51.4 °F 38.4 °F 30.26 in SSW 1.2 mph 1.2 mph 61% 0.00 in WeatherDisplay:10.37 W/m2 CLR
19:10 51.2 °F 39.4 °F 30.26 in WSW 1.2 mph 1.2 mph 64% 0.00 in WeatherDisplay:10.37 W/m2 CLR
19:15 50.9 °F 39.1 °F 30.26 in WSW 2.3 mph 2.3 mph 64% 0.00 in WeatherDisplay:10.37 W/m2 CLR
19:20 50.7 °F 39.4 °F 30.26 in NNE 3.5 mph 3.5 mph 65% 0.00 in WeatherDisplay:10.37 W/m2 CLR
19:25 50.5 °F 39.6 °F 30.26 in NNE 1.2 mph   66% 0.00 in WeatherDisplay:10.37 W/m2 CLR
19:30 50.3 °F 39.8 °F 30.26 in NNE 1.2 mph 1.2 mph 67% 0.00 in WeatherDisplay:10.37 W/m2 CLR
19:35 50.0 °F 39.5 °F 30.26 in NNE 2.3 mph 2.3 mph 67% 0.00 in WeatherDisplay:10.37 W/m2 CLR
19:40 49.8 °F 39.7 °F 30.26 in NNE 2.3 mph 2.3 mph 68% 0.00 in WeatherDisplay:10.37 W/m2 CLR
19:45 49.5 °F 39.4 °F 30.26 in NNE 2.3 mph 2.3 mph 68% 0.00 in WeatherDisplay:10.37 W/m2 CLR
19:50 49.2 °F 39.8 °F 30.26 in NNE 2.3 mph 2.3 mph 70% 0.00 in WeatherDisplay:10.37 W/m2 CLR
19:55 48.9 °F 40.3 °F 30.26 in NNE 1.2 mph 1.2 mph 72% 0.00 in WeatherDisplay:10.37 W/m2 CLR
20:00 48.7 °F 41.1 °F 30.26 in NNE 1.2 mph 1.2 mph 75% 0.00 in WeatherDisplay:10.37 W/m2 CLR
20:05 48.2 °F 40.6 °F 30.26 in NNE 2.3 mph 2.3 mph 75% 0.00 in WeatherDisplay:10.37 W/m2 CLR
20:10 47.8 °F 40.9 °F 30.26 in Calm     77% 0.00 in WeatherDisplay:10.37 W/m2 CLR
20:15 47.5 °F 40.6 °F 30.26 in NNE 1.2 mph 1.2 mph 77% 0.00 in WeatherDisplay:10.37 W/m2 CLR
20:20 47.2 °F 40.7 °F 30.26 in NNE 1.2 mph 1.2 mph 78% 0.00 in WeatherDisplay:10.37 W/m2 CLR
20:25 46.9 °F 40.7 °F 30.26 in NNE 1.2 mph 1.2 mph 79% 0.00 in WeatherDisplay:10.37 W/m2 CLR
20:30 46.7 °F 41.2 °F 30.26 in NNE 1.2 mph 1.2 mph 81% 0.00 in WeatherDisplay:10.37 W/m2 CLR
20:35 46.3 °F 40.8 °F 30.26 in NNE 1.2 mph 1.2 mph 81% 0.00 in WeatherDisplay:10.37 W/m2 CLR
20:40 46.0 °F 40.8 °F 30.27 in NNE 2.3 mph 2.3 mph 82% 0.00 in WeatherDisplay:10.37 W/m2 CLR
20:45 45.9 °F 41.0 °F 30.27 in NNE 1.2 mph 1.2 mph 83% 0.00 in WeatherDisplay:10.37 W/m2 CLR
20:50 45.6 °F 40.7 °F 30.27 in Calm     83% 0.00 in WeatherDisplay:10.37 W/m2 CLR
20:55 45.5 °F 40.9 °F 30.27 in Calm     84% 0.00 in WeatherDisplay:10.37 W/m2 CLR
21:00 45.3 °F 41.1 °F 30.27 in Calm     85% 0.00 in WeatherDisplay:10.37 W/m2 CLR
21:05 45.0 °F 41.1 °F 30.27 in Calm     86% 0.00 in WeatherDisplay:10.37 W/m2 CLR
21:10 44.9 °F 41.0 °F 30.27 in NNE 2.3 mph 2.3 mph 86% 0.00 in WeatherDisplay:10.37 W/m2 CLR
21:15 44.7 °F 40.8 °F 30.27 in Calm     86% 0.00 in WeatherDisplay:10.37 W/m2 CLR
21:20 44.6 °F 41.0 °F 30.27 in NNE 1.2 mph 1.2 mph 87% 0.00 in WeatherDisplay:10.37 W/m2 CLR
21:25 44.5 °F 41.2 °F 30.27 in Calm     88% 0.00 in WeatherDisplay:10.37 W/m2 CLR
21:30 44.3 °F 41.0 °F 30.27 in NNE 1.2 mph 1.2 mph 88% 0.00 in WeatherDisplay:10.37 W/m2 CLR
21:35 44.0 °F 40.7 °F 30.27 in Calm     88% 0.00 in WeatherDisplay:10.37 W/m2 CLR
21:40 43.9 °F 40.6 °F 30.27 in Calm     88% 0.00 in WeatherDisplay:10.37 W/m2 CLR
21:45 43.7 °F 40.7 °F 30.27 in Calm     89% 0.00 in WeatherDisplay:10.37 W/m2 CLR
21:50 43.6 °F 40.6 °F 30.27 in Calm     89% 0.00 in WeatherDisplay:10.37 W/m2 CLR
21:55 43.5 °F 40.8 °F 30.27 in Calm     90% 0.00 in WeatherDisplay:10.37 W/m2 CLR
22:00 43.4 °F 40.7 °F 30.27 in Calm     90% 0.00 in WeatherDisplay:10.37 W/m2 CLR
22:05 43.3 °F 40.6 °F 30.27 in Calm     90% 0.00 in WeatherDisplay:10.37 W/m2 CLR
22:10 43.2 °F 40.5 °F 30.27 in Calm     90% 0.00 in WeatherDisplay:10.37 W/m2 CLR
22:15 43.1 °F 40.7 °F 30.26 in Calm     91% 0.00 in WeatherDisplay:10.37 W/m2 CLR
22:20 43.0 °F 40.3 °F 30.26 in Calm     90% 0.00 in WeatherDisplay:10.37 W/m2 CLR
22:25 42.9 °F 40.5 °F 30.26 in Calm     91% 0.00 in WeatherDisplay:10.37 W/m2 CLR
22:30 42.7 °F 40.3 °F 30.26 in Calm     91% 0.00 in WeatherDisplay:10.37 W/m2 CLR
22:35 42.6 °F 40.2 °F 30.26 in Calm     91% 0.00 in WeatherDisplay:10.37 W/m2 CLR
22:40 42.5 °F 40.3 °F 30.26 in Calm     92% 0.00 in WeatherDisplay:10.37 W/m2 CLR
22:45 42.5 °F 40.3 °F 30.26 in Calm     92% 0.00 in WeatherDisplay:10.37 W/m2 CLR
22:50 42.4 °F 40.2 °F 30.26 in Calm     92% 0.00 in WeatherDisplay:10.37 W/m2 CLR
22:55 42.4 °F 40.2 °F 30.25 in Calm     92% 0.00 in WeatherDisplay:10.37 W/m2 CLR
23:00 42.3 °F 40.1 °F 30.25 in Calm     92% 0.00 in WeatherDisplay:10.37 W/m2 CLR
23:05 42.2 °F 40.3 °F 30.25 in Calm     93% 0.00 in WeatherDisplay:10.37 W/m2 CLR
23:10 42.1 °F 39.9 °F 30.25 in Calm     92% 0.00 in WeatherDisplay:10.37 W/m2 CLR
23:15 42.0 °F 40.1 °F 30.25 in Calm     93% 0.00 in WeatherDisplay:10.37 W/m2 CLR
23:20 42.0 °F 40.1 °F 30.24 in Calm     93% 0.00 in WeatherDisplay:10.37 W/m2 CLR
23:25 41.9 °F 40.0 °F 30.24 in Calm     93% 0.00 in WeatherDisplay:10.37 W/m2 CLR
23:30 41.8 °F 39.9 °F 30.24 in Calm     93% 0.00 in WeatherDisplay:10.37 W/m2 CLR
23:35 41.7 °F 39.8 °F 30.24 in Calm     93% 0.00 in WeatherDisplay:10.37 W/m2 CLR
23:40 41.7 °F 39.8 °F 30.23 in Calm     93% 0.00 in WeatherDisplay:10.37 W/m2 CLR
23:45 41.7 °F 39.8 °F 30.23 in Calm     93% 0.00 in WeatherDisplay:10.37 W/m2 CLR
23:50 41.6 °F 39.7 °F 30.24 in Calm     93% 0.00 in WeatherDisplay:10.37 W/m2 CLR
23:55 41.5 °F 39.6 °F 30.23 in Calm     93% 0.00 in WeatherDisplay:10.37 W/m2 CLR
VanCam Weather
Compliments of Weather Underground - 4 mb